sensor_id;sensor_type;location;lat;lon;timestamp;temperature;humidity
13113;DHT22;6622;49.752;6.100;2022-10-16T00:00:13;13.90;99.90
13113;DHT22;6622;49.752;6.100;2022-10-16T00:02:40;14.00;99.90
13113;DHT22;6622;49.752;6.100;2022-10-16T00:05:06;14.00;99.90
13113;DHT22;6622;49.752;6.100;2022-10-16T00:07:33;14.00;99.90
13113;DHT22;6622;49.752;6.100;2022-10-16T00:10:00;14.00;99.90
13113;DHT22;6622;49.752;6.100;2022-10-16T00:12:27;14.00;99.90
13113;DHT22;6622;49.752;6.100;2022-10-16T00:14:54;14.00;99.90
13113;DHT22;6622;49.752;6.100;2022-10-16T00:17:20;13.90;99.90
13113;DHT22;6622;49.752;6.100;2022-10-16T00:19:47;13.90;99.90
13113;DHT22;6622;49.752;6.100;2022-10-16T00:22:14;13.90;99.90
13113;DHT22;6622;49.752;6.100;2022-10-16T00:24:40;14.00;99.90
13113;DHT22;6622;49.752;6.100;2022-10-16T00:27:07;14.00;99.90
13113;DHT22;6622;49.752;6.100;2022-10-16T00:29:33;13.90;99.90
13113;DHT22;6622;49.752;6.100;2022-10-16T00:32:00;13.90;99.90
13113;DHT22;6622;49.752;6.100;2022-10-16T00:34:27;14.00;99.90
13113;DHT22;6622;49.752;6.100;2022-10-16T00:36:53;13.90;99.90
13113;DHT22;6622;49.752;6.100;2022-10-16T00:39:20;13.90;99.90
13113;DHT22;6622;49.752;6.100;2022-10-16T00:41:47;13.90;99.90
13113;DHT22;6622;49.752;6.100;2022-10-16T00:44:43;13.90;99.90
13113;DHT22;6622;49.752;6.100;2022-10-16T00:47:17;13.90;99.90
13113;DHT22;6622;49.752;6.100;2022-10-16T00:49:38;13.90;99.90
13113;DHT22;6622;49.752;6.100;2022-10-16T00:52:05;13.80;99.90
13113;DHT22;6622;49.752;6.100;2022-10-16T00:54:32;13.90;99.90
13113;DHT22;6622;49.752;6.100;2022-10-16T00:57:02;13.90;99.90
13113;DHT22;6622;49.752;6.100;2022-10-16T00:59:39;13.90;99.90
13113;DHT22;6622;49.752;6.100;2022-10-16T01:02:02;13.90;99.90
13113;DHT22;6622;49.752;6.100;2022-10-16T01:04:29;14.00;99.90
13113;DHT22;6622;49.752;6.100;2022-10-16T01:07:12;14.00;99.90
13113;DHT22;6622;49.752;6.100;2022-10-16T01:12:33;14.10;99.90
13113;DHT22;6622;49.752;6.100;2022-10-16T01:15:14;14.10;99.90
13113;DHT22;6622;49.752;6.100;2022-10-16T01:20:22;14.10;99.90
13113;DHT22;6622;49.752;6.100;2022-10-16T01:22:58;14.10;99.90
13113;DHT22;6622;49.752;6.100;2022-10-16T01:25:29;14.10;99.90
13113;DHT22;6622;49.752;6.100;2022-10-16T01:27:52;14.00;99.90
13113;DHT22;6622;49.752;6.100;2022-10-16T01:30:23;14.00;99.90
13113;DHT22;6622;49.752;6.100;2022-10-16T01:32:52;14.00;99.90
13113;DHT22;6622;49.752;6.100;2022-10-16T01:35:36;14.00;99.90
13113;DHT22;6622;49.752;6.100;2022-10-16T01:38:10;14.00;99.90
13113;DHT22;6622;49.752;6.100;2022-10-16T01:40:35;14.00;99.90
13113;DHT22;6622;49.752;6.100;2022-10-16T01:43:08;14.00;99.90
13113;DHT22;6622;49.752;6.100;2022-10-16T01:45:33;14.00;99.90
13113;DHT22;6622;49.752;6.100;2022-10-16T01:48:00;14.00;99.90
13113;DHT22;6622;49.752;6.100;2022-10-16T01:50:27;14.10;99.90
13113;DHT22;6622;49.752;6.100;2022-10-16T01:52:53;14.10;99.90
13113;DHT22;6622;49.752;6.100;2022-10-16T01:55:22;14.10;99.90
13113;DHT22;6622;49.752;6.100;2022-10-16T01:57:47;14.10;99.90
13113;DHT22;6622;49.752;6.100;2022-10-16T02:00:13;14.10;99.90
13113;DHT22;6622;49.752;6.100;2022-10-16T02:02:40;14.10;99.90
13113;DHT22;6622;49.752;6.100;2022-10-16T02:05:23;14.00;99.90
13113;DHT22;6622;49.752;6.100;2022-10-16T02:07:48;14.10;99.90
13113;DHT22;6622;49.752;6.100;2022-10-16T02:10:14;14.00;99.90
13113;DHT22;6622;49.752;6.100;2022-10-16T02:12:42;13.90;99.90
13113;DHT22;6622;49.752;6.100;2022-10-16T02:15:07;13.90;99.90
13113;DHT22;6622;49.752;6.100;2022-10-16T02:17:34;13.90;99.90
13113;DHT22;6622;49.752;6.100;2022-10-16T02:20:01;13.90;99.90
13113;DHT22;6622;49.752;6.100;2022-10-16T02:22:28;13.90;99.90
13113;DHT22;6622;49.752;6.100;2022-10-16T02:24:59;13.90;99.90
13113;DHT22;6622;49.752;6.100;2022-10-16T02:30:21;13.90;99.90
13113;DHT22;6622;49.752;6.100;2022-10-16T02:32:47;13.90;99.90
13113;DHT22;6622;49.752;6.100;2022-10-16T02:35:13;13.90;99.90
13113;DHT22;6622;49.752;6.100;2022-10-16T02:37:40;13.90;99.90
13113;DHT22;6622;49.752;6.100;2022-10-16T02:40:07;13.90;99.90
13113;DHT22;6622;49.752;6.100;2022-10-16T02:42:36;13.90;99.90
13113;DHT22;6622;49.752;6.100;2022-10-16T02:45:03;13.90;99.90
13113;DHT22;6622;49.752;6.100;2022-10-16T02:47:29;13.90;99.90
13113;DHT22;6622;49.752;6.100;2022-10-16T02:49:56;13.90;99.90
13113;DHT22;6622;49.752;6.100;2022-10-16T02:52:22;13.90;99.90
13113;DHT22;6622;49.752;6.100;2022-10-16T02:54:49;13.90;99.90
13113;DHT22;6622;49.752;6.100;2022-10-16T02:57:15;13.90;99.90
13113;DHT22;6622;49.752;6.100;2022-10-16T02:59:42;13.90;99.90
13113;DHT22;6622;49.752;6.100;2022-10-16T03:02:09;13.90;99.90
13113;DHT22;6622;49.752;6.100;2022-10-16T03:04:35;13.90;99.90
13113;DHT22;6622;49.752;6.100;2022-10-16T03:07:02;13.90;99.90
13113;DHT22;6622;49.752;6.100;2022-10-16T03:09:29;13.90;99.90
13113;DHT22;6622;49.752;6.100;2022-10-16T03:11:55;13.90;99.90
13113;DHT22;6622;49.752;6.100;2022-10-16T03:14:22;14.00;99.90
13113;DHT22;6622;49.752;6.100;2022-10-16T03:16:48;14.00;99.90
13113;DHT22;6622;49.752;6.100;2022-10-16T03:19:18;13.90;99.90
13113;DHT22;6622;49.752;6.100;2022-10-16T03:21:45;13.90;99.90
13113;DHT22;6622;49.752;6.100;2022-10-16T03:24:11;14.00;99.90
13113;DHT22;6622;49.752;6.100;2022-10-16T03:26:39;13.90;99.90
13113;DHT22;6622;49.752;6.100;2022-10-16T03:29:05;13.90;99.90
13113;DHT22;6622;49.752;6.100;2022-10-16T03:31:32;13.90;99.90
13113;DHT22;6622;49.752;6.100;2022-10-16T03:33:58;14.00;99.90
13113;DHT22;6622;49.752;6.100;2022-10-16T03:36:26;14.00;99.90
13113;DHT22;6622;49.752;6.100;2022-10-16T03:38:53;14.00;99.90
13113;DHT22;6622;49.752;6.100;2022-10-16T03:41:19;14.00;99.90
13113;DHT22;6622;49.752;6.100;2022-10-16T03:43:47;14.00;99.90
13113;DHT22;6622;49.752;6.100;2022-10-16T03:46:13;14.00;99.90
13113;DHT22;6622;49.752;6.100;2022-10-16T03:48:40;14.00;99.90
13113;DHT22;6622;49.752;6.100;2022-10-16T03:51:06;14.00;99.90
13113;DHT22;6622;49.752;6.100;2022-10-16T03:53:33;14.00;99.90
13113;DHT22;6622;49.752;6.100;2022-10-16T03:56:00;14.00;99.90
13113;DHT22;6622;49.752;6.100;2022-10-16T03:58:26;14.00;99.90
13113;DHT22;6622;49.752;6.100;2022-10-16T04:00:53;13.90;99.90
13113;DHT22;6622;49.752;6.100;2022-10-16T04:03:20;14.00;99.90
13113;DHT22;6622;49.752;6.100;2022-10-16T04:05:46;14.00;99.90
13113;DHT22;6622;49.752;6.100;2022-10-16T04:08:13;14.00;99.90
13113;DHT22;6622;49.752;6.100;2022-10-16T04:10:39;14.00;99.90
13113;DHT22;6622;49.752;6.100;2022-10-16T04:13:07;14.00;99.90
13113;DHT22;6622;49.752;6.100;2022-10-16T04:15:33;14.00;99.90
13113;DHT22;6622;49.752;6.100;2022-10-16T04:18:00;14.00;99.90
13113;DHT22;6622;49.752;6.100;2022-10-16T04:20:27;13.90;99.90
13113;DHT22;6622;49.752;6.100;2022-10-16T04:22:53;13.90;99.90
13113;DHT22;6622;49.752;6.100;2022-10-16T04:25:20;13.90;99.90
13113;DHT22;6622;49.752;6.100;2022-10-16T04:27:47;13.80;99.90
13113;DHT22;6622;49.752;6.100;2022-10-16T04:30:13;13.80;99.90
13113;DHT22;6622;49.752;6.100;2022-10-16T04:32:40;13.80;99.90
13113;DHT22;6622;49.752;6.100;2022-10-16T04:35:06;13.80;99.90
13113;DHT22;6622;49.752;6.100;2022-10-16T04:37:33;13.80;99.90
13113;DHT22;6622;49.752;6.100;2022-10-16T04:40:00;13.90;99.90
13113;DHT22;6622;49.752;6.100;2022-10-16T04:42:26;13.80;99.90
13113;DHT22;6622;49.752;6.100;2022-10-16T04:44:53;13.90;99.90
13113;DHT22;6622;49.752;6.100;2022-10-16T04:47:20;13.90;99.90
13113;DHT22;6622;49.752;6.100;2022-10-16T04:49:46;13.90;99.90
13113;DHT22;6622;49.752;6.100;2022-10-16T04:52:14;13.90;99.90
13113;DHT22;6622;49.752;6.100;2022-10-16T04:54:40;13.90;99.90
13113;DHT22;6622;49.752;6.100;2022-10-16T04:57:07;13.90;99.90
13113;DHT22;6622;49.752;6.100;2022-10-16T04:59:34;13.80;99.90
13113;DHT22;6622;49.752;6.100;2022-10-16T05:02:00;13.80;99.90
13113;DHT22;6622;49.752;6.100;2022-10-16T05:04:27;13.80;99.90
13113;DHT22;6622;49.752;6.100;2022-10-16T05:06:54;13.80;99.90
13113;DHT22;6622;49.752;6.100;2022-10-16T05:09:21;13.80;99.90
13113;DHT22;6622;49.752;6.100;2022-10-16T05:11:48;13.80;99.90
13113;DHT22;6622;49.752;6.100;2022-10-16T05:14:15;13.80;99.90
13113;DHT22;6622;49.752;6.100;2022-10-16T05:16:42;13.80;99.90
13113;DHT22;6622;49.752;6.100;2022-10-16T05:19:08;13.80;99.90
13113;DHT22;6622;49.752;6.100;2022-10-16T05:21:35;13.80;99.90
13113;DHT22;6622;49.752;6.100;2022-10-16T05:24:01;13.80;99.90
13113;DHT22;6622;49.752;6.100;2022-10-16T05:26:28;13.80;99.90
13113;DHT22;6622;49.752;6.100;2022-10-16T05:28:55;13.80;99.90
13113;DHT22;6622;49.752;6.100;2022-10-16T05:31:21;13.80;99.90
13113;DHT22;6622;49.752;6.100;2022-10-16T05:33:48;13.80;99.90
13113;DHT22;6622;49.752;6.100;2022-10-16T05:36:15;13.80;99.90
13113;DHT22;6622;49.752;6.100;2022-10-16T05:38:41;13.80;99.90
13113;DHT22;6622;49.752;6.100;2022-10-16T05:41:09;13.90;99.90
13113;DHT22;6622;49.752;6.100;2022-10-16T05:43:35;13.80;99.90
13113;DHT22;6622;49.752;6.100;2022-10-16T05:46:04;13.90;99.90
13113;DHT22;6622;49.752;6.100;2022-10-16T05:48:32;13.90;99.90
13113;DHT22;6622;49.752;6.100;2022-10-16T05:50:59;13.90;99.90
13113;DHT22;6622;49.752;6.100;2022-10-16T05:53:26;13.90;99.90
13113;DHT22;6622;49.752;6.100;2022-10-16T05:55:52;13.90;99.90
13113;DHT22;6622;49.752;6.100;2022-10-16T05:58:19;13.90;99.90
13113;DHT22;6622;49.752;6.100;2022-10-16T06:00:52;13.90;99.90
13113;DHT22;6622;49.752;6.100;2022-10-16T06:03:12;13.90;99.90
13113;DHT22;6622;49.752;6.100;2022-10-16T06:05:39;13.90;99.90
13113;DHT22;6622;49.752;6.100;2022-10-16T06:08:05;13.90;99.90
13113;DHT22;6622;49.752;6.100;2022-10-16T06:10:32;14.00;99.90
13113;DHT22;6622;49.752;6.100;2022-10-16T06:12:59;14.00;99.90
13113;DHT22;6622;49.752;6.100;2022-10-16T06:15:25;14.00;99.90
13113;DHT22;6622;49.752;6.100;2022-10-16T06:17:52;14.00;99.90
13113;DHT22;6622;49.752;6.100;2022-10-16T06:20:19;14.00;99.90
13113;DHT22;6622;49.752;6.100;2022-10-16T06:22:45;14.00;99.90
13113;DHT22;6622;49.752;6.100;2022-10-16T06:25:12;14.00;99.90
13113;DHT22;6622;49.752;6.100;2022-10-16T06:27:41;14.00;99.90
13113;DHT22;6622;49.752;6.100;2022-10-16T06:30:08;14.00;99.90
13113;DHT22;6622;49.752;6.100;2022-10-16T06:32:35;14.10;99.90
13113;DHT22;6622;49.752;6.100;2022-10-16T06:35:01;14.10;99.90
13113;DHT22;6622;49.752;6.100;2022-10-16T06:37:28;14.10;99.90
13113;DHT22;6622;49.752;6.100;2022-10-16T06:39:55;14.10;99.90
13113;DHT22;6622;49.752;6.100;2022-10-16T06:42:22;14.10;99.90
13113;DHT22;6622;49.752;6.100;2022-10-16T06:44:49;14.10;99.90
13113;DHT22;6622;49.752;6.100;2022-10-16T06:47:15;14.10;99.90
13113;DHT22;6622;49.752;6.100;2022-10-16T06:49:43;14.10;99.90
13113;DHT22;6622;49.752;6.100;2022-10-16T06:52:09;14.10;99.90
13113;DHT22;6622;49.752;6.100;2022-10-16T06:54:36;14.10;99.90
13113;DHT22;6622;49.752;6.100;2022-10-16T06:57:03;14.10;99.90
13113;DHT22;6622;49.752;6.100;2022-10-16T06:59:30;14.20;99.90
13113;DHT22;6622;49.752;6.100;2022-10-16T07:01:57;14.20;99.90
13113;DHT22;6622;49.752;6.100;2022-10-16T07:04:23;14.20;99.90
13113;DHT22;6622;49.752;6.100;2022-10-16T07:06:51;14.20;99.90
13113;DHT22;6622;49.752;6.100;2022-10-16T07:09:17;14.20;99.90
13113;DHT22;6622;49.752;6.100;2022-10-16T07:11:44;14.20;99.90
13113;DHT22;6622;49.752;6.100;2022-10-16T07:14:17;14.20;99.90
13113;DHT22;6622;49.752;6.100;2022-10-16T07:16:43;14.20;99.90
13113;DHT22;6622;49.752;6.100;2022-10-16T07:19:11;14.30;99.90
13113;DHT22;6622;49.752;6.100;2022-10-16T07:21:37;14.20;99.90
13113;DHT22;6622;49.752;6.100;2022-10-16T07:24:07;14.30;99.90
13113;DHT22;6622;49.752;6.100;2022-10-16T07:26:34;14.30;99.90
13113;DHT22;6622;49.752;6.100;2022-10-16T07:29:00;14.40;99.90
13113;DHT22;6622;49.752;6.100;2022-10-16T07:31:26;14.40;99.90
13113;DHT22;6622;49.752;6.100;2022-10-16T07:33:53;14.40;99.90
13113;DHT22;6622;49.752;6.100;2022-10-16T07:36:20;14.50;99.90
13113;DHT22;6622;49.752;6.100;2022-10-16T07:38:46;14.50;99.90
13113;DHT22;6622;49.752;6.100;2022-10-16T07:41:14;14.50;99.90
13113;DHT22;6622;49.752;6.100;2022-10-16T07:43:40;14.60;99.90
13113;DHT22;6622;49.752;6.100;2022-10-16T07:46:06;14.60;99.90
13113;DHT22;6622;49.752;6.100;2022-10-16T07:48:33;14.70;99.90
13113;DHT22;6622;49.752;6.100;2022-10-16T07:51:00;14.70;99.90
13113;DHT22;6622;49.752;6.100;2022-10-16T07:53:26;14.70;99.90
13113;DHT22;6622;49.752;6.100;2022-10-16T07:55:56;14.70;99.90
13113;DHT22;6622;49.752;6.100;2022-10-16T07:58:19;14.70;99.90
13113;DHT22;6622;49.752;6.100;2022-10-16T08:00:47;14.80;99.90
13113;DHT22;6622;49.752;6.100;2022-10-16T08:03:13;14.80;99.90
13113;DHT22;6622;49.752;6.100;2022-10-16T08:05:40;14.80;99.90
13113;DHT22;6622;49.752;6.100;2022-10-16T08:08:10;14.80;99.90
13113;DHT22;6622;49.752;6.100;2022-10-16T08:10:33;14.90;99.90
13113;DHT22;6622;49.752;6.100;2022-10-16T08:13:00;14.90;99.90
13113;DHT22;6622;49.752;6.100;2022-10-16T08:15:26;14.90;99.90
13113;DHT22;6622;49.752;6.100;2022-10-16T08:17:56;14.90;99.90
13113;DHT22;6622;49.752;6.100;2022-10-16T08:20:22;14.90;99.90
13113;DHT22;6622;49.752;6.100;2022-10-16T08:22:49;15.00;99.90
13113;DHT22;6622;49.752;6.100;2022-10-16T08:25:16;15.00;99.90
13113;DHT22;6622;49.752;6.100;2022-10-16T08:27:42;15.00;99.90
13113;DHT22;6622;49.752;6.100;2022-10-16T08:30:09;15.00;99.90
13113;DHT22;6622;49.752;6.100;2022-10-16T08:32:36;15.10;99.90
13113;DHT22;6622;49.752;6.100;2022-10-16T08:35:02;15.10;99.90
13113;DHT22;6622;49.752;6.100;2022-10-16T08:37:30;15.30;99.90
13113;DHT22;6622;49.752;6.100;2022-10-16T08:39:56;15.30;99.90
13113;DHT22;6622;49.752;6.100;2022-10-16T08:42:58;15.30;99.90
13113;DHT22;6622;49.752;6.100;2022-10-16T08:48:16;15.30;99.90
13113;DHT22;6622;49.752;6.100;2022-10-16T08:50:41;15.30;99.90
13113;DHT22;6622;49.752;6.100;2022-10-16T08:53:09;15.40;99.90
13113;DHT22;6622;49.752;6.100;2022-10-16T08:55:44;15.60;99.90
13113;DHT22;6622;49.752;6.100;2022-10-16T09:00:39;15.70;99.90
13113;DHT22;6622;49.752;6.100;2022-10-16T09:06:24;15.80;99.90
13113;DHT22;6622;49.752;6.100;2022-10-16T09:09:29;15.80;99.90
13113;DHT22;6622;49.752;6.100;2022-10-16T09:15:02;15.90;99.90
13113;DHT22;6622;49.752;6.100;2022-10-16T09:17:36;16.00;99.90
13113;DHT22;6622;49.752;6.100;2022-10-16T09:20:20;16.00;99.90
13113;DHT22;6622;49.752;6.100;2022-10-16T09:22:41;16.00;99.90
13113;DHT22;6622;49.752;6.100;2022-10-16T09:25:19;16.00;99.90
13113;DHT22;6622;49.752;6.100;2022-10-16T09:27:41;16.10;99.90
13113;DHT22;6622;49.752;6.100;2022-10-16T09:30:14;16.00;99.90
13113;DHT22;6622;49.752;6.100;2022-10-16T09:32:40;16.00;99.90
13113;DHT22;6622;49.752;6.100;2022-10-16T09:35:11;16.10;99.90
13113;DHT22;6622;49.752;6.100;2022-10-16T09:37:33;16.00;99.90
13113;DHT22;6622;49.752;6.100;2022-10-16T09:40:00;16.00;99.90
13113;DHT22;6622;49.752;6.100;2022-10-16T09:42:27;16.00;99.90
13113;DHT22;6622;49.752;6.100;2022-10-16T09:44:53;16.00;99.90
13113;DHT22;6622;49.752;6.100;2022-10-16T09:47:25;16.10;99.90
13113;DHT22;6622;49.752;6.100;2022-10-16T09:49:54;16.10;99.90
13113;DHT22;6622;49.752;6.100;2022-10-16T09:52:18;16.10;99.90
13113;DHT22;6622;49.752;6.100;2022-10-16T09:54:57;16.30;99.90
13113;DHT22;6622;49.752;6.100;2022-10-16T09:57:23;16.30;99.90
13113;DHT22;6622;49.752;6.100;2022-10-16T09:59:52;16.50;99.90
13113;DHT22;6622;49.752;6.100;2022-10-16T10:02:16;16.70;99.90
13113;DHT22;6622;49.752;6.100;2022-10-16T10:04:46;16.60;99.90
13113;DHT22;6622;49.752;6.100;2022-10-16T10:07:16;16.70;99.90
13113;DHT22;6622;49.752;6.100;2022-10-16T10:09:39;16.90;99.90
13113;DHT22;6622;49.752;6.100;2022-10-16T10:12:14;16.90;99.90
13113;DHT22;6622;49.752;6.100;2022-10-16T10:14:36;16.90;99.90
13113;DHT22;6622;49.752;6.100;2022-10-16T10:20:00;17.00;99.90
13113;DHT22;6622;49.752;6.100;2022-10-16T10:30:26;16.90;99.90
13113;DHT22;6622;49.752;6.100;2022-10-16T10:33:10;17.10;99.90
13113;DHT22;6622;49.752;6.100;2022-10-16T10:38:24;17.10;99.90
13113;DHT22;6622;49.752;6.100;2022-10-16T10:41:25;17.20;99.90
13113;DHT22;6622;49.752;6.100;2022-10-16T10:46:03;17.30;99.90
13113;DHT22;6622;49.752;6.100;2022-10-16T10:48:55;17.20;99.90
13113;DHT22;6622;49.752;6.100;2022-10-16T10:53:58;17.50;99.90
13113;DHT22;6622;49.752;6.100;2022-10-16T10:59:32;17.70;99.90
13113;DHT22;6622;49.752;6.100;2022-10-16T11:02:09;17.50;99.90
13113;DHT22;6622;49.752;6.100;2022-10-16T11:07:30;17.30;99.90
13113;DHT22;6622;49.752;6.100;2022-10-16T11:09:57;17.30;99.90
13113;DHT22;6622;49.752;6.100;2022-10-16T11:12:33;17.20;99.90
13113;DHT22;6622;49.752;6.100;2022-10-16T11:15:07;17.20;99.90
13113;DHT22;6622;49.752;6.100;2022-10-16T11:17:33;17.10;99.90
13113;DHT22;6622;49.752;6.100;2022-10-16T11:20:00;17.10;99.90
13113;DHT22;6622;49.752;6.100;2022-10-16T11:22:35;17.10;99.90
13113;DHT22;6622;49.752;6.100;2022-10-16T11:25:22;17.10;99.90
13113;DHT22;6622;49.752;6.100;2022-10-16T11:30:30;17.10;99.90
13113;DHT22;6622;49.752;6.100;2022-10-16T11:41:27;17.20;99.90
13113;DHT22;6622;49.752;6.100;2022-10-16T11:46:37;17.40;99.90
13113;DHT22;6622;49.752;6.100;2022-10-16T11:49:08;17.50;99.90
13113;DHT22;6622;49.752;6.100;2022-10-16T11:51:38;17.60;99.90
13113;DHT22;6622;49.752;6.100;2022-10-16T11:54:14;17.60;99.90
13113;DHT22;6622;49.752;6.100;2022-10-16T11:56:36;17.70;99.90
13113;DHT22;6622;49.752;6.100;2022-10-16T11:59:08;17.80;99.90
13113;DHT22;6622;49.752;6.100;2022-10-16T12:01:37;17.70;99.90
13113;DHT22;6622;49.752;6.100;2022-10-16T12:06:31;17.70;99.90
13113;DHT22;6622;49.752;6.100;2022-10-16T12:08:56;17.70;99.90
13113;DHT22;6622;49.752;6.100;2022-10-16T12:14:07;17.80;99.90
13113;DHT22;6622;49.752;6.100;2022-10-16T12:16:30;17.70;99.90
13113;DHT22;6622;49.752;6.100;2022-10-16T12:19:08;17.80;99.90
13113;DHT22;6622;49.752;6.100;2022-10-16T12:21:32;17.70;99.90
13113;DHT22;6622;49.752;6.100;2022-10-16T12:23:58;17.50;99.90
13113;DHT22;6622;49.752;6.100;2022-10-16T12:26:25;17.50;99.90
13113;DHT22;6622;49.752;6.100;2022-10-16T12:28:51;17.40;99.90
13113;DHT22;6622;49.752;6.100;2022-10-16T12:31:18;17.50;99.90
13113;DHT22;6622;49.752;6.100;2022-10-16T12:33:57;17.50;99.90
13113;DHT22;6622;49.752;6.100;2022-10-16T12:36:27;17.40;99.90
13113;DHT22;6622;49.752;6.100;2022-10-16T12:38:53;17.40;99.90
13113;DHT22;6622;49.752;6.100;2022-10-16T12:41:35;17.40;99.90
13113;DHT22;6622;49.752;6.100;2022-10-16T12:44:01;17.40;99.90
13113;DHT22;6622;49.752;6.100;2022-10-16T12:51:40;17.70;99.90
13113;DHT22;6622;49.752;6.100;2022-10-16T12:57:18;17.70;99.90
13113;DHT22;6622;49.752;6.100;2022-10-16T12:59:54;17.70;99.90
13113;DHT22;6622;49.752;6.100;2022-10-16T13:11:17;17.60;99.90
13113;DHT22;6622;49.752;6.100;2022-10-16T13:13:08;17.60;99.90
13113;DHT22;6622;49.752;6.100;2022-10-16T13:15:48;17.60;99.90
13113;DHT22;6622;49.752;6.100;2022-10-16T13:18:16;17.60;99.90
13113;DHT22;6622;49.752;6.100;2022-10-16T13:23:30;17.60;99.90
13113;DHT22;6622;49.752;6.100;2022-10-16T13:28:42;17.80;99.90
13113;DHT22;6622;49.752;6.100;2022-10-16T13:31:20;17.80;99.90
13113;DHT22;6622;49.752;6.100;2022-10-16T13:33:48;17.70;99.90
13113;DHT22;6622;49.752;6.100;2022-10-16T13:36:33;17.60;99.90
13113;DHT22;6622;49.752;6.100;2022-10-16T13:38:48;17.50;99.90
13113;DHT22;6622;49.752;6.100;2022-10-16T13:41:16;17.50;99.90
13113;DHT22;6622;49.752;6.100;2022-10-16T13:43:50;17.50;99.90
13113;DHT22;6622;49.752;6.100;2022-10-16T13:46:18;17.60;99.90
13113;DHT22;6622;49.752;6.100;2022-10-16T13:48:44;17.50;99.90
13113;DHT22;6622;49.752;6.100;2022-10-16T13:51:12;17.50;99.90
13113;DHT22;6622;49.752;6.100;2022-10-16T13:53:37;17.50;99.90
13113;DHT22;6622;49.752;6.100;2022-10-16T13:56:05;17.60;99.90
13113;DHT22;6622;49.752;6.100;2022-10-16T13:58:31;17.70;99.90
13113;DHT22;6622;49.752;6.100;2022-10-16T14:00:58;17.70;99.90
13113;DHT22;6622;49.752;6.100;2022-10-16T14:03:25;17.70;99.90
13113;DHT22;6622;49.752;6.100;2022-10-16T14:05:58;17.70;99.90
13113;DHT22;6622;49.752;6.100;2022-10-16T14:08:21;17.80;99.90
13113;DHT22;6622;49.752;6.100;2022-10-16T14:10:48;17.80;99.90
13113;DHT22;6622;49.752;6.100;2022-10-16T14:13:15;17.70;99.90
13113;DHT22;6622;49.752;6.100;2022-10-16T14:15:45;17.80;99.90
13113;DHT22;6622;49.752;6.100;2022-10-16T14:18:13;17.80;99.90
13113;DHT22;6622;49.752;6.100;2022-10-16T14:20:34;17.80;99.90
13113;DHT22;6622;49.752;6.100;2022-10-16T14:25:46;17.70;99.90
13113;DHT22;6622;49.752;6.100;2022-10-16T14:28:21;17.70;99.90
13113;DHT22;6622;49.752;6.100;2022-10-16T14:30:55;17.80;99.90
13113;DHT22;6622;49.752;6.100;2022-10-16T14:33:22;17.80;99.90
13113;DHT22;6622;49.752;6.100;2022-10-16T14:35:56;17.80;99.90
13113;DHT22;6622;49.752;6.100;2022-10-16T14:38:20;17.70;99.90
13113;DHT22;6622;49.752;6.100;2022-10-16T14:40:47;17.60;99.90
13113;DHT22;6622;49.752;6.100;2022-10-16T14:43:22;17.60;99.90
13113;DHT22;6622;49.752;6.100;2022-10-16T14:45:55;17.60;99.90
13113;DHT22;6622;49.752;6.100;2022-10-16T14:48:21;17.60;99.90
13113;DHT22;6622;49.752;6.100;2022-10-16T14:50:47;17.60;99.90
13113;DHT22;6622;49.752;6.100;2022-10-16T14:53:14;17.60;99.90
13113;DHT22;6622;49.752;6.100;2022-10-16T14:55:47;17.60;99.90
13113;DHT22;6622;49.752;6.100;2022-10-16T14:58:17;17.70;99.90
13113;DHT22;6622;49.752;6.100;2022-10-16T15:00:43;17.70;99.90
13113;DHT22;6622;49.752;6.100;2022-10-16T15:03:11;17.90;99.90
13113;DHT22;6622;49.752;6.100;2022-10-16T15:05:37;17.80;99.90
13113;DHT22;6622;49.752;6.100;2022-10-16T15:08:04;17.90;99.90
13113;DHT22;6622;49.752;6.100;2022-10-16T15:10:32;18.00;99.90
13113;DHT22;6622;49.752;6.100;2022-10-16T15:12:58;18.00;99.90
13113;DHT22;6622;49.752;6.100;2022-10-16T15:15:37;18.00;99.90
13113;DHT22;6622;49.752;6.100;2022-10-16T15:18:03;18.00;99.90
13113;DHT22;6622;49.752;6.100;2022-10-16T15:20:31;17.90;99.90
13113;DHT22;6622;49.752;6.100;2022-10-16T15:22:57;17.90;99.90
13113;DHT22;6622;49.752;6.100;2022-10-16T15:25:31;17.90;99.90
13113;DHT22;6622;49.752;6.100;2022-10-16T15:27:57;17.90;99.90
13113;DHT22;6622;49.752;6.100;2022-10-16T15:30:24;17.90;99.90
13113;DHT22;6622;49.752;6.100;2022-10-16T15:32:50;17.90;99.90
13113;DHT22;6622;49.752;6.100;2022-10-16T15:35:17;17.90;99.90
13113;DHT22;6622;49.752;6.100;2022-10-16T15:37:43;17.90;99.90
13113;DHT22;6622;49.752;6.100;2022-10-16T15:40:10;17.80;99.90
13113;DHT22;6622;49.752;6.100;2022-10-16T15:42:37;17.80;99.90
13113;DHT22;6622;49.752;6.100;2022-10-16T15:45:03;17.80;99.90
13113;DHT22;6622;49.752;6.100;2022-10-16T15:47:30;17.70;99.90
13113;DHT22;6622;49.752;6.100;2022-10-16T15:49:57;17.70;99.90
13113;DHT22;6622;49.752;6.100;2022-10-16T15:52:23;17.70;99.90
13113;DHT22;6622;49.752;6.100;2022-10-16T15:54:50;17.70;99.90
13113;DHT22;6622;49.752;6.100;2022-10-16T15:57:16;17.60;99.90
13113;DHT22;6622;49.752;6.100;2022-10-16T15:59:43;17.70;99.90
13113;DHT22;6622;49.752;6.100;2022-10-16T16:02:10;17.70;99.90
13113;DHT22;6622;49.752;6.100;2022-10-16T16:04:37;17.70;99.90
13113;DHT22;6622;49.752;6.100;2022-10-16T16:07:04;17.70;99.90
13113;DHT22;6622;49.752;6.100;2022-10-16T16:09:30;17.70;99.90
13113;DHT22;6622;49.752;6.100;2022-10-16T16:11:58;17.60;99.90
13113;DHT22;6622;49.752;6.100;2022-10-16T16:14:24;17.60;99.90
13113;DHT22;6622;49.752;6.100;2022-10-16T16:16:51;17.60;99.90
13113;DHT22;6622;49.752;6.100;2022-10-16T16:19:18;17.50;99.90
13113;DHT22;6622;49.752;6.100;2022-10-16T16:21:44;17.50;99.90
13113;DHT22;6622;49.752;6.100;2022-10-16T16:24:11;17.50;99.90
13113;DHT22;6622;49.752;6.100;2022-10-16T16:26:38;17.40;99.90
13113;DHT22;6622;49.752;6.100;2022-10-16T16:29:04;17.40;99.90
13113;DHT22;6622;49.752;6.100;2022-10-16T16:31:31;17.40;99.90
13113;DHT22;6622;49.752;6.100;2022-10-16T16:33:58;17.40;99.90
13113;DHT22;6622;49.752;6.100;2022-10-16T16:36:24;17.40;99.90
13113;DHT22;6622;49.752;6.100;2022-10-16T16:38:51;17.40;99.90
13113;DHT22;6622;49.752;6.100;2022-10-16T16:41:19;17.40;99.90
13113;DHT22;6622;49.752;6.100;2022-10-16T16:43:45;17.40;99.90
13113;DHT22;6622;49.752;6.100;2022-10-16T16:46:11;17.40;99.90
13113;DHT22;6622;49.752;6.100;2022-10-16T16:48:38;17.40;99.90
13113;DHT22;6622;49.752;6.100;2022-10-16T16:51:05;17.40;99.90
13113;DHT22;6622;49.752;6.100;2022-10-16T16:53:33;17.30;99.90
13113;DHT22;6622;49.752;6.100;2022-10-16T16:56:00;17.20;99.90
13113;DHT22;6622;49.752;6.100;2022-10-16T16:58:24;17.00;99.90
13113;DHT22;6622;49.752;6.100;2022-10-16T17:00:51;16.90;99.90
13113;DHT22;6622;49.752;6.100;2022-10-16T17:03:18;16.80;99.90
13113;DHT22;6622;49.752;6.100;2022-10-16T17:05:54;16.70;99.90
13113;DHT22;6622;49.752;6.100;2022-10-16T17:08:11;16.60;99.90
13113;DHT22;6622;49.752;6.100;2022-10-16T17:10:43;16.50;99.90
13113;DHT22;6622;49.752;6.100;2022-10-16T17:13:10;16.50;99.90
13113;DHT22;6622;49.752;6.100;2022-10-16T17:15:36;16.50;99.90
13113;DHT22;6622;49.752;6.100;2022-10-16T17:18:03;16.40;99.90